createdAt,value
2018-12-19T00:01:01.572Z,5.80
2018-12-19T00:03:32.572Z,6.43
2018-12-19T00:06:12.422Z,7.30
2018-12-19T00:08:45.665Z,6.33
2018-12-19T00:11:36.383Z,6.03
2018-12-19T00:14:16.517Z,5.13
2018-12-19T00:16:49.662Z,4.60
2018-12-19T00:19:19.113Z,4.67
2018-12-19T00:21:50.030Z,5.33
2018-12-19T00:24:38.166Z,5.43
2018-12-19T00:27:18.420Z,5.63
2018-12-19T00:32:56.531Z,5.03
2018-12-19T00:35:27.917Z,5.20
2018-12-19T00:37:59.140Z,4.63
2018-12-19T00:40:32.378Z,5.30
2018-12-19T00:43:01.868Z,5.37
2018-12-19T00:45:41.483Z,4.20
2018-12-19T00:48:21.195Z,5.70
2018-12-19T00:50:52.164Z,4.50
2018-12-19T00:53:23.019Z,4.70
2018-12-19T00:55:56.535Z,5.63
2018-12-19T00:58:27.832Z,5.53
2018-12-19T01:01:01.127Z,6.43
2018-12-19T01:03:32.660Z,5.63
2018-12-19T01:06:23.129Z,6.33
2018-12-19T01:09:15.974Z,6.63
2018-12-19T01:11:49.329Z,5.73
2018-12-19T01:14:29.379Z,5.40
2018-12-19T01:17:03.054Z,5.17
2018-12-19T01:19:37.082Z,5.57
2018-12-19T01:22:24.001Z,5.97
2018-12-19T01:24:57.999Z,6.27
2018-12-19T01:27:35.715Z,6.70
2018-12-19T01:30:08.806Z,6.90
2018-12-19T01:32:40.242Z,6.33
2018-12-19T01:35:20.004Z,7.23
2018-12-19T01:37:53.402Z,6.23
2018-12-19T01:40:24.840Z,7.40
2018-12-19T01:43:13.474Z,6.97
2018-12-19T01:46:04.345Z,7.70
2018-12-19T01:48:38.390Z,7.67
2018-12-19T01:51:13.410Z,7.13
2018-12-19T01:53:49.342Z,8.37
2018-12-19T01:59:22.505Z,8.23
2018-12-19T02:01:53.507Z,7.30
2018-12-19T02:04:33.372Z,7.90
2018-12-19T02:07:21.660Z,8.87
2018-12-19T02:10:01.364Z,6.83
2018-12-19T02:12:42.296Z,7.43
2018-12-19T02:15:30.692Z,8.47
2018-12-19T02:18:04.587Z,8.97
2018-12-19T02:20:38.469Z,9.37
2018-12-19T02:23:09.966Z,10.83
2018-12-19T02:25:49.894Z,9.33
2018-12-19T02:28:20.907Z,10.27
2018-12-19T02:31:00.816Z,9.03
2018-12-19T02:33:35.441Z,7.80
2018-12-19T02:36:05.056Z,8.00
2018-12-19T02:38:36.005Z,8.17
2018-12-19T02:41:06.783Z,7.97
2018-12-19T02:43:38.002Z,8.43
2018-12-19T02:46:09.500Z,6.77
2018-12-19T02:48:40.520Z,9.37
2018-12-19T02:51:13.817Z,7.50
2018-12-19T02:53:47.731Z,10.83
2018-12-19T02:56:17.223Z,7.10
2018-12-19T02:58:48.354Z,11.07
2018-12-19T03:01:19.088Z,8.20
2018-12-19T03:03:52.503Z,8.27
2018-12-19T03:06:25.631Z,11.00
2018-12-19T03:08:59.517Z,8.97
2018-12-19T03:11:29.007Z,8.77
2018-12-19T03:14:02.539Z,9.37
2018-12-19T03:16:36.592Z,7.53
2018-12-19T03:19:16.709Z,10.07
2018-12-19T03:21:47.736Z,8.93
2018-12-19T03:24:18.830Z,8.90
2018-12-19T03:26:58.658Z,9.70
2018-12-19T03:29:38.482Z,9.60
2018-12-19T03:32:09.489Z,8.80
2018-12-19T03:34:42.785Z,10.57
2018-12-19T03:37:16.599Z,8.87
2018-12-19T03:39:50.534Z,9.33
2018-12-19T03:42:22.069Z,10.20
2018-12-19T03:44:55.341Z,8.27
2018-12-19T03:47:29.258Z,9.57
2018-12-19T03:50:07.060Z,9.77
2018-12-19T03:52:36.582Z,9.67
2018-12-19T03:55:09.920Z,8.37
2018-12-19T03:57:43.074Z,10.40
2018-12-19T04:00:14.883Z,10.70
2018-12-19T04:02:46.326Z,10.43
2018-12-19T04:05:19.664Z,10.30
2018-12-19T04:08:00.155Z,8.80
2018-12-19T04:10:39.914Z,8.80
2018-12-19T04:13:30.158Z,10.53
2018-12-19T04:16:10.404Z,11.27
2018-12-19T04:18:43.790Z,10.00
2018-12-19T04:21:17.770Z,8.57
2018-12-19T04:23:58.013Z,9.23
2018-12-19T04:29:36.511Z,11.20
2018-12-19T04:32:05.898Z,11.17
2018-12-19T04:34:39.056Z,9.23
2018-12-19T04:37:18.560Z,10.63
2018-12-19T04:40:05.368Z,9.93
2018-12-19T04:42:41.620Z,11.73
2018-12-19T04:45:10.690Z,12.27
2018-12-19T04:47:50.442Z,10.43
2018-12-19T04:50:23.897Z,11.90
2018-12-19T04:52:55.218Z,11.07
2018-12-19T04:55:36.963Z,12.50
2018-12-19T04:58:10.572Z,10.93
2018-12-19T05:00:48.253Z,11.50
2018-12-19T05:03:36.954Z,12.40
2018-12-19T05:06:08.416Z,11.77
2018-12-19T05:08:48.188Z,13.30
2018-12-19T05:11:21.677Z,11.43
2018-12-19T05:13:58.896Z,12.60
2018-12-19T05:16:36.791Z,11.17
2018-12-19T05:19:10.068Z,13.63
2018-12-19T05:21:41.424Z,12.53
2018-12-19T05:24:22.942Z,11.67
2018-12-19T05:26:56.345Z,11.67
2018-12-19T05:29:27.823Z,12.33
2018-12-19T05:31:58.734Z,13.67
2018-12-19T05:34:29.543Z,14.03
2018-12-19T05:37:09.427Z,11.20
2018-12-19T05:39:49.266Z,13.77
2018-12-19T05:42:22.948Z,12.13
2018-12-19T05:45:03.322Z,11.83
2018-12-19T05:47:34.497Z,13.70
2018-12-19T05:50:06.727Z,14.03
2018-12-19T05:52:36.465Z,14.63
2018-12-19T05:55:16.129Z,12.40
2018-12-19T05:57:49.579Z,12.97
2018-12-19T06:00:23.522Z,12.97
2018-12-19T06:02:54.200Z,12.73
2018-12-19T06:05:27.661Z,13.40
2018-12-19T06:08:00.701Z,11.77
2018-12-19T06:10:41.140Z,12.50
2018-12-19T06:13:11.940Z,12.90
2018-12-19T06:15:49.420Z,12.80
2018-12-19T06:18:18.859Z,13.00
2018-12-19T06:20:58.897Z,13.07
2018-12-19T06:23:32.204Z,12.23
2018-12-19T06:26:03.606Z,12.03
2018-12-19T06:28:37.038Z,12.33
2018-12-19T06:31:10.132Z,12.00
2018-12-19T06:33:44.162Z,14.20
2018-12-19T06:36:24.709Z,14.00
2018-12-19T06:39:04.514Z,13.40
2018-12-19T06:41:38.234Z,11.70
2018-12-19T06:44:28.788Z,13.00
2018-12-19T06:47:16.860Z,13.83
2018-12-19T06:49:49.837Z,13.53
2018-12-19T06:52:23.857Z,12.20
2018-12-19T06:55:03.389Z,14.93
2018-12-19T06:57:43.284Z,14.87
2018-12-19T07:00:16.656Z,12.70
2018-12-19T07:03:07.393Z,13.13
2018-12-19T07:05:47.519Z,15.60
2018-12-19T07:08:18.435Z,15.17
2018-12-19T07:13:58.432Z,13.93
2018-12-19T07:16:46.326Z,12.87
2018-12-19T07:19:26.686Z,11.57
2018-12-19T07:22:06.504Z,14.33
2018-12-19T07:24:37.584Z,13.03
2018-12-19T07:30:11.496Z,13.87
2018-12-19T07:32:52.386Z,13.50
2018-12-19T07:35:32.126Z,13.57
2018-12-19T07:38:05.580Z,12.97
2018-12-19T07:43:38.555Z,15.70
2018-12-19T07:46:09.631Z,11.80
2018-12-19T07:48:50.679Z,13.70
2018-12-19T07:51:41.260Z,12.50
2018-12-19T07:54:32.137Z,14.00
2018-12-19T07:57:12.586Z,12.63
2018-12-19T08:00:00.922Z,11.97
2018-12-19T08:02:32.273Z,14.00
2018-12-19T08:05:05.838Z,13.37
2018-12-19T08:07:39.582Z,14.77
2018-12-19T08:10:21.397Z,12.23
2018-12-19T08:12:52.407Z,12.97
2018-12-19T08:15:32.098Z,12.67
2018-12-19T08:18:11.903Z,12.90
2018-12-19T08:20:41.362Z,11.33
2018-12-19T08:23:14.684Z,13.67
2018-12-19T08:25:52.614Z,13.20
2018-12-19T08:31:26.257Z,12.93
2018-12-19T08:34:14.078Z,12.67
2018-12-19T08:36:56.765Z,11.43
2018-12-19T08:39:36.523Z,14.10
2018-12-19T08:42:26.761Z,13.73
2018-12-19T08:45:14.871Z,12.13
2018-12-19T08:47:55.311Z,13.47
2018-12-19T08:50:28.501Z,16.47
2018-12-19T08:53:02.329Z,13.97
2018-12-19T08:55:42.711Z,14.80
2018-12-19T08:58:22.668Z,15.00
2018-12-19T09:01:02.636Z,18.93
2018-12-19T09:03:42.635Z,13.67
2018-12-19T09:06:22.588Z,15.67
2018-12-19T09:09:10.835Z,13.43
2018-12-19T09:14:47.841Z,15.10
2018-12-19T09:17:19.627Z,13.17
2018-12-19T09:19:59.705Z,17.00
2018-12-19T09:22:29.277Z,15.90
2018-12-19T09:25:17.296Z,15.67
2018-12-19T09:30:54.263Z,15.10
2018-12-19T09:33:42.025Z,15.33
2018-12-19T09:36:15.883Z,17.43
2018-12-19T09:38:46.502Z,14.80
2018-12-19T09:41:25.949Z,13.93
2018-12-19T09:47:12.441Z,15.20
2018-12-19T09:52:54.399Z,14.53
2018-12-19T09:58:30.429Z,14.57
2018-12-19T10:01:05.511Z,15.17
2018-12-19T10:03:36.765Z,15.77
2018-12-19T10:06:16.592Z,14.47
2018-12-19T10:08:56.301Z,15.20
2018-12-19T10:11:36.084Z,16.37
2018-12-19T10:14:24.619Z,16.23
2018-12-19T10:17:05.011Z,16.13
2018-12-19T10:19:44.827Z,14.87
2018-12-19T10:28:15.637Z,16.10
2018-12-19T10:30:59.160Z,15.23
2018-12-19T10:33:39.306Z,15.50
2018-12-19T10:36:08.453Z,15.57
2018-12-19T10:38:39.416Z,17.90
2018-12-19T10:41:25.722Z,19.73
2018-12-19T10:43:57.664Z,18.93
2018-12-19T10:46:31.710Z,17.20
2018-12-19T10:49:18.250Z,15.37
2018-12-19T10:52:06.314Z,15.97
2018-12-19T10:54:46.991Z,15.43
2018-12-19T10:57:17.855Z,15.37
2018-12-19T11:02:54.334Z,15.20
2018-12-19T11:05:34.146Z,16.10
2018-12-19T11:08:04.998Z,17.43
2018-12-19T11:10:45.185Z,16.90
2018-12-19T11:13:25.468Z,14.53
2018-12-19T11:15:58.880Z,15.70
2018-12-19T11:18:39.223Z,15.53
2018-12-19T11:21:26.688Z,16.10
2018-12-19T11:24:17.614Z,17.70
2018-12-19T11:26:58.058Z,18.73
2018-12-19T11:29:39.752Z,16.43
2018-12-19T11:32:10.607Z,17.30
2018-12-19T11:34:50.204Z,15.97
2018-12-19T11:37:33.041Z,16.27
2018-12-19T11:40:12.778Z,14.97
2018-12-19T11:42:46.149Z,16.90
2018-12-19T11:45:17.662Z,15.80
2018-12-19T11:47:58.441Z,15.47
2018-12-19T11:50:29.487Z,15.47
2018-12-19T11:56:09.564Z,15.37
2018-12-19T11:58:49.969Z,18.73
2018-12-19T12:01:27.557Z,15.73
2018-12-19T12:04:08.109Z,14.63
2018-12-19T12:06:54.213Z,17.10
2018-12-19T12:09:24.201Z,16.97
2018-12-19T12:11:55.552Z,16.60
2018-12-19T12:17:40.454Z,16.27
2018-12-19T12:20:21.164Z,14.70
2018-12-19T12:22:52.780Z,16.00
2018-12-19T12:25:26.072Z,15.17
2018-12-19T12:28:06.433Z,14.97
2018-12-19T12:30:46.085Z,18.37
2018-12-19T12:33:36.207Z,16.40
2018-12-19T12:36:16.673Z,14.70
2018-12-19T12:38:50.089Z,18.93
2018-12-19T12:41:23.901Z,18.63
2018-12-19T12:43:55.465Z,17.73
2018-12-19T12:46:26.468Z,17.73
2018-12-19T12:48:57.230Z,15.93
2018-12-19T12:51:30.476Z,17.13
2018-12-19T12:54:04.351Z,17.67
2018-12-19T12:56:44.760Z,17.13
2018-12-19T12:59:24.518Z,17.63
2018-12-19T13:01:57.830Z,17.20
2018-12-19T13:04:38.061Z,17.40
2018-12-19T13:07:11.132Z,20.07
2018-12-19T13:09:40.299Z,18.93
2018-12-19T13:12:11.282Z,18.60
2018-12-19T13:17:22.830Z,19.27
2018-12-19T13:20:11.270Z,20.17
2018-12-19T13:22:45.191Z,18.87
2018-12-19T13:25:15.774Z,19.43
2018-12-19T13:30:52.547Z,20.23
2018-12-19T13:33:25.858Z,22.17
2018-12-19T13:36:06.490Z,21.67
2018-12-19T13:38:47.098Z,19.80
2018-12-19T13:41:27.231Z,21.27
2018-12-19T13:44:00.946Z,22.20
2018-12-19T13:46:48.489Z,19.87
2018-12-19T13:52:05.652Z,22.60
2018-12-19T13:54:45.323Z,21.07
2018-12-19T13:57:25.145Z,17.97
2018-12-19T14:00:05.054Z,21.50
2018-12-19T14:02:38.833Z,21.70
2018-12-19T14:05:19.098Z,21.50
2018-12-19T14:07:52.166Z,22.97
2018-12-19T14:10:23.654Z,22.53
2018-12-19T14:13:03.417Z,20.20
2018-12-19T14:15:49.717Z,21.90
2018-12-19T14:18:19.103Z,19.67
2018-12-19T14:21:05.228Z,22.63
2018-12-19T14:23:43.324Z,22.03
2018-12-19T14:26:23.693Z,20.50
2018-12-19T14:28:55.101Z,23.60
2018-12-19T14:31:35.269Z,20.63
2018-12-19T14:34:08.539Z,22.80
2018-12-19T14:36:48.809Z,22.80
2018-12-19T14:39:37.104Z,20.80
2018-12-19T14:42:19.123Z,24.17
2018-12-19T14:44:50.537Z,24.13
2018-12-19T14:47:30.306Z,21.87
2018-12-19T14:50:10.175Z,23.60
2018-12-19T14:52:50.299Z,22.33
2018-12-19T14:55:23.849Z,23.87
2018-12-19T15:00:59.766Z,20.53
2018-12-19T15:03:31.175Z,21.50
2018-12-19T15:06:04.570Z,24.67
2018-12-19T15:11:32.985Z,22.07
2018-12-19T15:14:04.324Z,23.60
2018-12-19T15:16:37.923Z,22.97
2018-12-19T15:21:45.822Z,21.37
2018-12-19T15:24:17.047Z,22.40
2018-12-19T15:26:57.143Z,23.03
2018-12-19T15:29:25.974Z,23.07
2018-12-19T15:31:58.072Z,22.23
2018-12-19T15:34:37.718Z,19.70
2018-12-19T15:37:17.504Z,22.57
2018-12-19T15:39:48.493Z,21.97
2018-12-19T15:42:19.616Z,22.63
2018-12-19T15:44:59.621Z,21.27
2018-12-19T15:50:38.218Z,19.07
2018-12-19T15:53:24.531Z,21.43
2018-12-19T15:55:54.516Z,19.37
2018-12-19T15:58:31.803Z,18.60
2018-12-19T16:01:02.794Z,20.70
2018-12-19T16:03:48.715Z,20.80
2018-12-19T16:06:28.938Z,20.63
2018-12-19T16:09:09.484Z,22.53
2018-12-19T16:11:40.707Z,20.33
2018-12-19T16:14:27.602Z,19.87
2018-12-19T16:16:59.035Z,20.27
2018-12-19T16:22:34.711Z,21.57
2018-12-19T16:25:08.061Z,20.73
2018-12-19T16:27:59.041Z,22.00
2018-12-19T16:30:30.378Z,21.27
2018-12-19T16:33:01.390Z,21.90
2018-12-19T16:35:39.585Z,20.03
2018-12-19T16:38:10.305Z,19.93
2018-12-19T16:40:50.264Z,21.57
2018-12-19T16:43:27.543Z,21.03
2018-12-19T16:46:07.842Z,22.33
2018-12-19T16:48:38.770Z,20.63
2018-12-19T16:51:19.827Z,19.07
2018-12-19T16:53:50.824Z,20.33
2018-12-19T16:56:21.827Z,22.90
2018-12-19T16:59:02.703Z,20.80
2018-12-19T17:01:33.750Z,22.67
2018-12-19T17:04:05.157Z,20.90
2018-12-19T17:06:44.963Z,22.93
2018-12-19T17:09:18.378Z,20.93
2018-12-19T17:11:49.850Z,24.07
2018-12-19T17:14:38.087Z,25.83
2018-12-19T17:17:25.633Z,22.77
2018-12-19T17:20:03.563Z,21.53
2018-12-19T17:22:37.425Z,23.53
2018-12-19T17:25:25.198Z,21.97
2018-12-19T17:28:11.935Z,22.37
2018-12-19T17:30:45.869Z,27.47
2018-12-19T17:36:09.928Z,24.63
2018-12-19T17:38:50.046Z,25.17
2018-12-19T17:44:36.868Z,21.93
2018-12-19T17:47:25.209Z,23.17
2018-12-19T17:50:13.102Z,20.87
2018-12-19T17:52:44.609Z,22.93
2018-12-19T17:55:24.216Z,22.43
2018-12-19T17:57:57.621Z,23.20
2018-12-19T18:03:33.457Z,21.40
2018-12-19T18:06:21.340Z,24.80
2018-12-19T18:09:04.065Z,20.90
2018-12-19T18:11:34.849Z,26.13
2018-12-19T18:14:14.840Z,25.87
2018-12-19T18:16:54.706Z,23.57
2018-12-19T18:19:34.662Z,27.63
2018-12-19T18:22:05.884Z,25.70
2018-12-19T18:24:45.823Z,26.20
2018-12-19T18:27:19.203Z,26.67
2018-12-19T18:29:58.848Z,25.57
2018-12-19T18:32:29.852Z,27.20
2018-12-19T18:35:00.943Z,27.63
2018-12-19T18:37:51.255Z,27.67
2018-12-19T18:40:31.406Z,27.90
2018-12-19T18:43:02.686Z,29.50
2018-12-19T18:45:42.292Z,27.20
2018-12-19T18:48:22.099Z,29.67
2018-12-19T18:51:01.657Z,30.80
2018-12-19T18:53:42.621Z,28.73
2018-12-19T18:56:13.726Z,29.27
2018-12-19T18:58:53.538Z,27.77
2018-12-19T19:01:33.506Z,30.00
2018-12-19T19:04:04.541Z,30.50
2018-12-19T19:06:52.995Z,28.50
2018-12-19T19:09:27.061Z,28.73
2018-12-19T19:11:56.491Z,29.67
2018-12-19T19:14:27.446Z,29.00
2018-12-19T19:17:07.271Z,31.33
2018-12-19T19:19:38.215Z,27.27
2018-12-19T19:22:17.846Z,28.07
2018-12-19T19:24:49.098Z,29.00
2018-12-19T19:27:29.557Z,30.50
2018-12-19T19:30:09.497Z,27.47
2018-12-19T19:32:43.131Z,29.93
2018-12-19T19:35:30.898Z,27.90
2018-12-19T19:38:08.839Z,29.27
2018-12-19T19:40:42.587Z,30.97
2018-12-19T19:43:26.525Z,28.87
2018-12-19T19:45:58.200Z,27.50
2018-12-19T19:48:38.369Z,25.93
2018-12-19T19:51:18.202Z,29.97
2018-12-19T19:53:58.020Z,29.13
2018-12-19T19:56:48.467Z,29.07
2018-12-19T19:59:28.806Z,31.47
2018-12-19T20:02:00.054Z,29.90
2018-12-19T20:04:39.690Z,28.27
2018-12-19T20:10:22.598Z,31.27
2018-12-19T20:13:04.773Z,31.20
2018-12-19T20:15:36.472Z,31.23
2018-12-19T20:18:10.334Z,31.50
2018-12-19T20:20:41.698Z,31.20
2018-12-19T20:23:15.015Z,30.13
2018-12-19T20:25:44.560Z,30.53
2018-12-19T20:28:15.803Z,31.00
2018-12-19T20:33:56.439Z,34.40
2018-12-19T20:36:36.526Z,28.70
2018-12-19T20:39:10.052Z,30.43
2018-12-19T20:41:40.307Z,30.20
2018-12-19T20:44:11.519Z,29.83
2018-12-19T20:46:43.192Z,28.60
2018-12-19T20:49:16.221Z,28.43
2018-12-19T20:51:47.826Z,32.77
2018-12-19T20:54:37.914Z,30.07
2018-12-19T20:57:18.335Z,29.50
2018-12-19T20:59:56.585Z,26.90
2018-12-19T21:02:36.973Z,31.03
2018-12-19T21:05:14.495Z,29.60
2018-12-19T21:07:43.693Z,29.70
2018-12-19T21:10:23.230Z,30.87
2018-12-19T21:12:53.999Z,32.27
2018-12-19T21:15:34.781Z,30.90
2018-12-19T21:18:20.238Z,31.70
2018-12-19T21:20:53.915Z,32.40
2018-12-19T21:23:44.494Z,30.53
2018-12-19T21:26:18.538Z,32.37
2018-12-19T21:28:58.759Z,31.47
2018-12-19T21:31:29.542Z,32.93
2018-12-19T21:34:06.891Z,35.97
2018-12-19T21:36:44.766Z,34.67
2018-12-19T21:39:25.252Z,33.67
2018-12-19T21:41:58.426Z,33.83
2018-12-19T21:44:38.883Z,32.57
2018-12-19T21:47:16.182Z,35.30
2018-12-19T21:49:53.902Z,34.13
2018-12-19T21:52:25.535Z,34.37
2018-12-19T21:54:58.675Z,31.23
2018-12-19T21:57:31.806Z,35.27
2018-12-19T22:00:08.101Z,35.30
2018-12-19T22:02:41.588Z,35.10
2018-12-19T22:05:11.001Z,34.13
2018-12-19T22:07:50.955Z,37.23
2018-12-19T22:10:21.846Z,35.70
2018-12-19T22:12:53.010Z,35.30
2018-12-19T22:15:27.112Z,35.10
2018-12-19T22:18:02.556Z,37.30
2018-12-19T22:20:32.323Z,36.27
2018-12-19T22:23:05.489Z,35.57
2018-12-19T22:25:45.710Z,35.37
2018-12-19T22:28:26.490Z,36.97
2018-12-19T22:31:06.501Z,35.37
2018-12-19T22:33:37.420Z,36.17
2018-12-19T22:36:08.572Z,34.93
2018-12-19T22:38:48.501Z,35.50
2018-12-19T22:41:30.289Z,35.93
2018-12-19T22:44:10.256Z,34.27
2018-12-19T22:47:00.839Z,34.70
2018-12-19T22:49:32.718Z,39.27
2018-12-19T22:52:03.389Z,36.87
2018-12-19T22:54:53.495Z,36.93
2018-12-19T22:57:27.352Z,38.67
2018-12-19T23:00:10.711Z,35.67
2018-12-19T23:02:47.388Z,36.20
2018-12-19T23:05:33.003Z,37.97
2018-12-19T23:08:10.641Z,36.23
2018-12-19T23:10:44.347Z,35.57
2018-12-19T23:13:17.998Z,37.73
2018-12-19T23:15:47.541Z,38.27
2018-12-19T23:18:27.194Z,33.67
2018-12-19T23:21:07.341Z,36.60
2018-12-19T23:23:38.185Z,38.53
2018-12-19T23:26:18.005Z,38.13
2018-12-19T23:28:51.022Z,33.93
2018-12-19T23:37:26.340Z,35.23
2018-12-19T23:40:12.534Z,34.33
2018-12-19T23:42:44.210Z,34.37
2018-12-19T23:45:24.126Z,34.67
2018-12-19T23:51:04.510Z,38.53
2018-12-19T23:53:34.032Z,36.20
2018-12-19T23:56:04.923Z,33.13
2018-12-19T23:58:44.744Z,33.03
